createdAt,value
2018-12-17T00:01:03.161Z,33.60
2018-12-17T00:03:35.663Z,34.37
2018-12-17T00:06:07.906Z,35.40
2018-12-17T00:08:38.158Z,33.47
2018-12-17T00:11:14.398Z,33.83
2018-12-17T00:13:44.837Z,34.40
2018-12-17T00:16:15.313Z,35.17
2018-12-17T00:18:46.594Z,34.73
2018-12-17T00:21:17.238Z,33.73
2018-12-17T00:23:47.468Z,34.00
2018-12-17T00:26:17.975Z,34.23
2018-12-17T00:28:48.190Z,33.63
2018-12-17T00:31:18.521Z,34.43
2018-12-17T00:33:48.655Z,34.97
2018-12-17T00:36:19.019Z,33.97
2018-12-17T00:38:49.448Z,34.07
2018-12-17T00:41:19.524Z,34.33
2018-12-17T00:43:49.988Z,33.77
2018-12-17T00:46:19.906Z,35.63
2018-12-17T00:48:49.980Z,34.83
2018-12-17T00:51:21.219Z,34.37
2018-12-17T00:53:52.146Z,35.00
2018-12-17T00:56:22.402Z,34.87
2018-12-17T00:58:52.695Z,34.10
2018-12-17T01:01:23.074Z,35.47
2018-12-17T01:03:53.110Z,35.50
2018-12-17T01:06:23.149Z,35.87
2018-12-17T01:08:53.254Z,35.80
2018-12-17T01:11:26.075Z,35.83
2018-12-17T01:13:56.332Z,35.37
2018-12-17T01:16:26.618Z,34.80
2018-12-17T01:18:56.954Z,35.60
2018-12-17T01:21:27.663Z,36.77
2018-12-17T01:23:57.800Z,36.60
2018-12-17T01:26:43.302Z,37.60
2018-12-17T01:29:13.672Z,35.50
2018-12-17T01:31:44.520Z,34.73
2018-12-17T01:34:14.834Z,36.63
2018-12-17T01:36:45.154Z,34.00
2018-12-17T01:39:15.751Z,36.20
2018-12-17T01:41:45.797Z,34.73
2018-12-17T01:44:16.147Z,34.00
2018-12-17T01:46:46.551Z,34.23
2018-12-17T01:49:16.777Z,32.10
2018-12-17T01:51:46.965Z,30.90
2018-12-17T01:54:17.285Z,30.13
2018-12-17T01:56:47.331Z,31.10
2018-12-17T01:59:18.051Z,31.00
2018-12-17T02:01:48.593Z,30.27
2018-12-17T02:04:18.949Z,31.00
2018-12-17T02:06:48.960Z,33.70
2018-12-17T02:09:19.791Z,33.23
2018-12-17T02:11:50.186Z,34.70
2018-12-17T02:14:20.220Z,36.20
2018-12-17T02:16:50.296Z,35.83
2018-12-17T02:19:20.485Z,37.53
2018-12-17T02:21:50.801Z,38.70
2018-12-17T02:24:20.706Z,37.33
2018-12-17T02:26:50.904Z,37.87
2018-12-17T02:29:20.849Z,39.03
2018-12-17T02:31:50.888Z,37.13
2018-12-17T02:34:21.171Z,38.27
2018-12-17T02:36:51.109Z,37.57
2018-12-17T02:39:21.499Z,38.20
2018-12-17T02:41:51.826Z,39.27
2018-12-17T02:44:22.131Z,37.23
2018-12-17T02:46:52.272Z,35.03
2018-12-17T02:49:22.753Z,37.07
2018-12-17T02:51:53.087Z,37.73
2018-12-17T02:54:23.162Z,37.17
2018-12-17T02:56:53.372Z,38.60
2018-12-17T02:59:23.388Z,37.97
2018-12-17T03:01:53.741Z,37.70
2018-12-17T03:04:24.170Z,38.57
2018-12-17T03:06:54.515Z,39.20
2018-12-17T03:09:24.388Z,39.50
2018-12-17T03:11:59.928Z,38.57
2018-12-17T03:14:30.209Z,38.07
2018-12-17T03:17:00.423Z,39.20
2018-12-17T03:19:30.663Z,38.00
2018-12-17T03:22:00.697Z,40.87
2018-12-17T03:24:30.798Z,36.73
2018-12-17T03:27:00.983Z,36.77
2018-12-17T03:29:31.144Z,36.50
2018-12-17T03:32:01.561Z,38.77
2018-12-17T03:34:31.607Z,38.07
2018-12-17T03:37:01.628Z,36.03
2018-12-17T03:39:31.646Z,36.33
2018-12-17T03:42:01.938Z,36.83
2018-12-17T03:44:32.492Z,35.90
2018-12-17T03:47:02.479Z,35.17
2018-12-17T03:49:32.540Z,37.67
2018-12-17T03:52:03.060Z,35.60
2018-12-17T03:54:33.189Z,35.73
2018-12-17T03:57:03.371Z,33.93
2018-12-17T03:59:33.523Z,37.73
2018-12-17T04:02:09.790Z,35.17
2018-12-17T04:04:40.006Z,34.30
2018-12-17T04:07:10.134Z,34.77
2018-12-17T04:09:40.527Z,32.90
2018-12-17T04:12:10.763Z,33.77
2018-12-17T04:14:41.314Z,32.57
2018-12-17T04:17:11.266Z,32.60
2018-12-17T04:19:41.836Z,33.93
2018-12-17T04:22:12.807Z,32.70
2018-12-17T04:24:42.862Z,32.63
2018-12-17T04:27:13.657Z,32.70
2018-12-17T04:29:43.761Z,32.70
2018-12-17T04:32:14.680Z,32.87
2018-12-17T04:34:45.374Z,32.10
2018-12-17T04:37:15.692Z,30.97
2018-12-17T04:39:46.214Z,30.83
2018-12-17T04:42:17.302Z,30.50
2018-12-17T04:44:47.406Z,29.83
2018-12-17T04:47:18.052Z,31.33
2018-12-17T04:49:47.969Z,32.23
2018-12-17T04:52:18.550Z,32.70
2018-12-17T04:54:48.592Z,31.53
2018-12-17T04:57:19.001Z,32.87
2018-12-17T04:59:49.284Z,33.40
2018-12-17T05:02:28.760Z,32.73
2018-12-17T05:04:59.098Z,33.17
2018-12-17T05:07:29.330Z,33.37
2018-12-17T05:09:59.440Z,33.33
2018-12-17T05:12:30.187Z,35.10
2018-12-17T05:15:01.013Z,31.40
2018-12-17T05:17:32.203Z,30.77
2018-12-17T05:20:02.369Z,29.93
2018-12-17T05:22:32.744Z,31.13
2018-12-17T05:25:02.855Z,31.57
2018-12-17T05:27:33.182Z,30.20
2018-12-17T05:30:03.403Z,31.67
2018-12-17T05:32:39.852Z,33.90
2018-12-17T05:35:09.901Z,33.27
2018-12-17T05:37:41.390Z,34.03
2018-12-17T05:40:15.071Z,30.90
2018-12-17T05:42:46.847Z,31.50
2018-12-17T05:45:17.310Z,32.13
2018-12-17T05:47:47.379Z,32.27
2018-12-17T05:50:17.620Z,33.53
2018-12-17T05:52:47.939Z,33.03
2018-12-17T05:55:18.492Z,33.07
2018-12-17T05:57:49.008Z,34.57
2018-12-17T06:00:19.361Z,34.40
2018-12-17T06:02:49.799Z,34.83
2018-12-17T06:05:20.247Z,33.90
2018-12-17T06:07:50.314Z,33.57
2018-12-17T06:10:20.375Z,34.30
2018-12-17T06:12:51.837Z,32.40
2018-12-17T06:15:21.909Z,32.60
2018-12-17T06:17:52.106Z,32.77
2018-12-17T06:20:22.584Z,31.97
2018-12-17T06:22:52.809Z,33.43
2018-12-17T06:25:22.788Z,34.90
2018-12-17T06:27:52.885Z,32.27
2018-12-17T06:30:22.844Z,32.83
2018-12-17T06:32:52.940Z,33.40
2018-12-17T06:35:23.033Z,34.03
2018-12-17T06:37:53.970Z,32.33
2018-12-17T06:40:24.199Z,34.33
2018-12-17T06:42:54.306Z,33.73
2018-12-17T06:45:24.485Z,33.13
2018-12-17T06:47:54.849Z,34.40
2018-12-17T06:50:25.217Z,35.83
2018-12-17T06:52:55.646Z,34.67
2018-12-17T06:55:25.756Z,34.30
2018-12-17T06:57:56.144Z,34.03
2018-12-17T07:00:26.147Z,37.60
2018-12-17T07:02:56.478Z,34.43
2018-12-17T07:05:26.741Z,36.73
2018-12-17T07:07:56.801Z,34.00
2018-12-17T07:10:26.880Z,36.30
2018-12-17T07:12:58.592Z,33.87
2018-12-17T07:15:29.665Z,33.37
2018-12-17T07:17:59.675Z,34.93
2018-12-17T07:20:29.771Z,33.17
2018-12-17T07:22:59.994Z,34.27
2018-12-17T07:25:29.941Z,34.23
2018-12-17T07:27:59.998Z,36.53
2018-12-17T07:30:30.182Z,36.77
2018-12-17T07:33:00.336Z,37.20
2018-12-17T07:35:30.578Z,36.97
2018-12-17T07:38:01.008Z,36.43
2018-12-17T07:40:31.200Z,36.50
2018-12-17T07:43:06.472Z,36.13
2018-12-17T07:45:36.701Z,32.87
2018-12-17T07:48:07.964Z,35.93
2018-12-17T07:50:37.949Z,36.40
2018-12-17T07:53:08.785Z,33.90
2018-12-17T07:55:39.109Z,37.00
2018-12-17T07:58:09.516Z,35.33
2018-12-17T08:00:39.780Z,35.03
2018-12-17T08:03:11.145Z,36.57
2018-12-17T08:05:42.827Z,38.17
2018-12-17T08:08:14.523Z,35.60
2018-12-17T08:10:44.976Z,35.53
2018-12-17T08:13:16.542Z,35.50
2018-12-17T08:15:46.822Z,38.10
2018-12-17T08:18:23.383Z,35.83
2018-12-17T08:20:54.347Z,36.03
2018-12-17T08:23:24.755Z,36.70
2018-12-17T08:25:55.147Z,36.53
2018-12-17T08:28:25.360Z,37.50
2018-12-17T08:30:56.131Z,37.00
2018-12-17T08:33:26.667Z,38.90
2018-12-17T08:35:58.087Z,38.80
2018-12-17T08:38:29.569Z,38.70
2018-12-17T08:41:00.271Z,38.87
2018-12-17T08:43:30.562Z,38.30
2018-12-17T08:46:01.022Z,38.40
2018-12-17T08:48:30.974Z,38.90
2018-12-17T08:51:02.827Z,38.20
2018-12-17T08:53:32.932Z,41.10
2018-12-17T08:56:03.095Z,39.27
2018-12-17T08:58:33.282Z,40.03
2018-12-17T09:01:03.697Z,39.10
2018-12-17T09:03:33.846Z,37.67
2018-12-17T09:06:04.032Z,39.80
2018-12-17T09:08:34.049Z,37.47
2018-12-17T09:11:04.226Z,40.40
2018-12-17T09:13:34.286Z,41.70
2018-12-17T09:16:04.314Z,39.57
2018-12-17T09:18:35.606Z,40.40
2018-12-17T09:21:06.098Z,41.53
2018-12-17T09:23:36.578Z,40.43
2018-12-17T09:26:06.970Z,42.40
2018-12-17T09:28:38.663Z,40.53
2018-12-17T09:31:09.411Z,42.30
2018-12-17T09:33:39.977Z,42.60
2018-12-17T09:36:11.429Z,40.93
2018-12-17T09:38:41.917Z,39.83
2018-12-17T09:41:12.715Z,42.03
2018-12-17T09:43:43.003Z,43.07
2018-12-17T09:46:14.230Z,43.70
2018-12-17T09:48:44.977Z,43.93
2018-12-17T09:51:19.517Z,41.80
2018-12-17T09:53:47.546Z,42.13
2018-12-17T09:56:18.679Z,40.90
2018-12-17T09:58:48.812Z,43.60
2018-12-17T10:01:19.337Z,44.03
2018-12-17T10:03:49.693Z,45.37
2018-12-17T10:09:06.793Z,43.73
2018-12-17T10:11:44.105Z,44.13
2018-12-17T10:14:14.823Z,44.30
2018-12-17T10:16:45.316Z,44.90
2018-12-17T10:19:15.766Z,44.03
2018-12-17T10:21:46.409Z,44.43
2018-12-17T10:24:17.337Z,44.17
2018-12-17T10:26:47.426Z,44.63
2018-12-17T10:29:17.874Z,46.17
2018-12-17T10:31:48.139Z,43.80
2018-12-17T10:34:19.020Z,44.73
2018-12-17T10:36:49.241Z,45.10
2018-12-17T10:39:19.456Z,44.53
2018-12-17T10:41:49.704Z,46.67
2018-12-17T10:44:21.778Z,45.40
2018-12-17T10:46:52.221Z,45.97
2018-12-17T10:49:22.635Z,46.67
2018-12-17T10:51:52.562Z,47.23
2018-12-17T10:54:22.662Z,45.17
2018-12-17T10:56:52.632Z,44.57
2018-12-17T10:59:22.872Z,45.67
2018-12-17T11:01:59.991Z,47.80
2018-12-17T11:04:36.247Z,48.47
2018-12-17T11:07:06.521Z,46.73
2018-12-17T11:09:36.640Z,45.13
2018-12-17T11:12:07.305Z,44.67
2018-12-17T11:14:37.261Z,47.37
2018-12-17T11:17:07.964Z,45.90
2018-12-17T11:19:38.048Z,47.17
2018-12-17T11:22:08.369Z,48.03
2018-12-17T11:24:38.395Z,45.77
2018-12-17T11:27:08.765Z,46.03
2018-12-17T11:29:39.088Z,46.27
2018-12-17T11:32:11.657Z,45.27
2018-12-17T11:34:41.446Z,46.67
2018-12-17T11:37:11.973Z,46.47
2018-12-17T11:39:42.202Z,47.67
2018-12-17T11:42:13.336Z,47.60
2018-12-17T11:44:43.491Z,46.53
2018-12-17T11:47:14.249Z,48.23
2018-12-17T11:49:44.955Z,46.53
2018-12-17T11:52:20.705Z,47.40
2018-12-17T11:54:51.097Z,45.87
2018-12-17T11:58:35.659Z,46.23
2018-12-17T12:01:09.177Z,43.87
2018-12-17T12:03:41.256Z,44.93
2018-12-17T12:06:14.162Z,44.97
2018-12-17T12:08:45.497Z,46.83
2018-12-17T12:11:16.235Z,45.93
2018-12-17T12:13:46.646Z,47.13
2018-12-17T12:16:17.273Z,47.40
2018-12-17T12:18:48.999Z,47.00
2018-12-17T12:21:24.714Z,48.27
2018-12-17T12:23:54.967Z,48.30
2018-12-17T12:26:25.153Z,45.00
2018-12-17T12:28:55.691Z,48.23
2018-12-17T12:31:26.297Z,47.53
2018-12-17T12:33:56.646Z,49.23
2018-12-17T12:36:27.104Z,48.43
2018-12-17T12:38:57.041Z,46.13
2018-12-17T12:41:27.674Z,47.93
2018-12-17T12:43:58.114Z,47.97
2018-12-17T12:46:28.402Z,48.13
2018-12-17T12:48:58.713Z,47.27
2018-12-17T12:51:32.563Z,50.37
2018-12-17T12:54:01.540Z,47.73
2018-12-17T12:56:31.695Z,49.83
2018-12-17T12:59:01.889Z,50.60
2018-12-17T13:01:33.646Z,50.13
2018-12-17T13:04:06.217Z,50.63
2018-12-17T13:06:38.544Z,49.53
2018-12-17T13:09:11.806Z,51.90
2018-12-17T13:11:46.634Z,49.37
2018-12-17T13:14:18.490Z,51.23
2018-12-17T13:16:48.604Z,48.77
2018-12-17T13:19:19.082Z,52.90
2018-12-17T13:21:49.414Z,51.87
2018-12-17T13:24:19.743Z,51.03
2018-12-17T13:26:49.883Z,53.17
2018-12-17T13:29:20.116Z,51.70
2018-12-17T13:31:50.320Z,51.03
2018-12-17T13:34:21.277Z,54.13
2018-12-17T13:36:53.153Z,52.27
2018-12-17T13:39:23.967Z,53.17
2018-12-17T13:41:54.913Z,53.10
2018-12-17T13:44:25.077Z,53.00
2018-12-17T13:46:56.326Z,52.07
2018-12-17T13:49:27.709Z,57.17
2018-12-17T13:52:03.177Z,54.03
2018-12-17T13:54:33.596Z,53.87
2018-12-17T13:57:03.788Z,54.50
2018-12-17T13:59:34.357Z,54.67
2018-12-17T14:02:05.045Z,54.77
2018-12-17T14:04:35.147Z,56.30
2018-12-17T14:07:11.465Z,55.27
2018-12-17T14:10:46.729Z,54.50
2018-12-17T14:13:17.291Z,53.63
2018-12-17T14:15:51.492Z,55.40
2018-12-17T14:18:26.665Z,53.53
2018-12-17T14:21:02.179Z,54.97
2018-12-17T14:23:32.500Z,55.10
2018-12-17T14:26:03.350Z,57.97
2018-12-17T14:28:34.862Z,54.43
2018-12-17T14:31:05.334Z,56.13
2018-12-17T14:33:35.919Z,56.70
2018-12-17T14:36:09.930Z,56.20
2018-12-17T14:38:41.962Z,57.47
2018-12-17T14:41:13.387Z,54.23
2018-12-17T14:43:43.585Z,59.40
2018-12-17T14:46:14.553Z,59.90
2018-12-17T14:48:44.993Z,59.10
2018-12-17T14:51:17.967Z,57.97
2018-12-17T14:53:48.616Z,55.57
2018-12-17T14:56:18.852Z,56.40
2018-12-17T14:58:49.768Z,59.60
2018-12-17T15:01:20.231Z,59.10
2018-12-17T15:03:51.721Z,62.57
2018-12-17T15:06:22.085Z,56.00
2018-12-17T15:08:52.700Z,60.67
2018-12-17T15:11:26.833Z,59.50
2018-12-17T15:13:57.005Z,57.77
2018-12-17T15:16:27.112Z,58.17
2018-12-17T15:18:57.690Z,55.53
2018-12-17T15:21:28.489Z,61.20
2018-12-17T15:23:59.229Z,58.03
2018-12-17T15:26:29.482Z,57.70
2018-12-17T15:28:59.804Z,56.83
2018-12-17T15:31:30.725Z,65.33
2018-12-17T15:34:01.318Z,67.23
2018-12-17T15:36:31.368Z,71.30
2018-12-17T15:39:01.740Z,69.10
2018-12-17T15:41:32.542Z,67.33
2018-12-17T15:44:03.442Z,61.87
2018-12-17T15:46:33.506Z,58.87
2018-12-17T15:49:03.494Z,57.10
2018-12-17T15:51:33.887Z,56.17
2018-12-17T15:54:04.573Z,57.77
2018-12-17T15:56:35.017Z,57.33
2018-12-17T15:59:06.329Z,57.07
2018-12-17T16:01:36.437Z,57.43
2018-12-17T16:04:07.293Z,59.47
2018-12-17T16:06:38.005Z,57.10
2018-12-17T16:09:09.042Z,57.93
2018-12-17T16:11:41.096Z,59.63
2018-12-17T16:14:11.366Z,57.80
2018-12-17T16:16:42.008Z,57.13
2018-12-17T16:19:12.985Z,56.23
2018-12-17T16:21:43.182Z,59.30
2018-12-17T16:24:14.048Z,57.77
2018-12-17T16:26:44.508Z,60.67
2018-12-17T16:29:15.203Z,58.00
2018-12-17T16:31:45.414Z,60.20
2018-12-17T16:34:15.888Z,61.30
2018-12-17T16:36:47.717Z,61.50
2018-12-17T16:39:17.844Z,58.47
2018-12-17T16:41:48.041Z,58.93
2018-12-17T16:44:18.543Z,59.80
2018-12-17T16:46:48.731Z,62.03
2018-12-17T16:49:19.253Z,61.33
2018-12-17T16:51:49.371Z,57.10
2018-12-17T16:54:20.721Z,57.00
2018-12-17T16:56:50.907Z,54.73
2018-12-17T16:59:21.838Z,53.20
2018-12-17T17:01:52.099Z,54.50
2018-12-17T17:04:22.308Z,54.87
2018-12-17T17:06:52.386Z,55.20
2018-12-17T17:09:22.820Z,53.53
2018-12-17T17:11:53.038Z,56.90
2018-12-17T17:14:23.318Z,55.90
2018-12-17T17:16:53.792Z,56.77
2018-12-17T17:19:23.820Z,57.17
2018-12-17T17:21:53.933Z,58.53
2018-12-17T17:24:24.252Z,57.00
2018-12-17T17:26:56.040Z,56.70
2018-12-17T17:29:27.217Z,53.77
2018-12-17T17:31:57.673Z,53.73
2018-12-17T17:34:28.326Z,54.07
2018-12-17T17:36:58.645Z,52.17
2018-12-17T17:39:29.134Z,52.93
2018-12-17T17:41:59.793Z,52.73
2018-12-17T17:44:30.083Z,54.27
2018-12-17T17:47:00.456Z,52.17
2018-12-17T17:49:30.762Z,54.27
2018-12-17T17:52:01.573Z,51.10
2018-12-17T17:54:32.023Z,52.57
2018-12-17T17:57:02.518Z,57.03
2018-12-17T17:59:32.671Z,56.40
2018-12-17T18:02:03.295Z,55.20
2018-12-17T18:04:33.340Z,51.90
2018-12-17T18:07:03.793Z,52.60
2018-12-17T18:09:34.189Z,56.90
2018-12-17T18:12:04.622Z,61.30
2018-12-17T18:14:34.659Z,57.67
2018-12-17T18:17:06.265Z,56.00
2018-12-17T18:19:36.542Z,53.93
2018-12-17T18:22:07.483Z,53.47
2018-12-17T18:24:37.829Z,54.43
2018-12-17T18:27:08.798Z,53.57
2018-12-17T18:29:38.993Z,54.53
2018-12-17T18:32:09.456Z,54.57
2018-12-17T18:34:39.663Z,52.67
2018-12-17T18:37:09.912Z,53.43
2018-12-17T18:39:40.917Z,54.07
2018-12-17T18:42:12.011Z,54.30
2018-12-17T18:44:43.626Z,55.60
2018-12-17T18:47:14.443Z,55.07
2018-12-17T18:49:44.948Z,59.07
2018-12-17T18:52:15.370Z,59.00
2018-12-17T18:54:46.304Z,59.63
2018-12-17T18:57:16.379Z,58.07
2018-12-17T18:59:46.785Z,58.80
2018-12-17T19:02:17.826Z,58.43
2018-12-17T19:04:48.793Z,58.63
2018-12-17T19:07:19.137Z,60.50
2018-12-17T19:09:50.568Z,64.43
2018-12-17T19:12:20.901Z,63.10
2018-12-17T19:14:51.091Z,61.43
2018-12-17T19:17:21.454Z,60.00
2018-12-17T19:19:51.955Z,58.03
2018-12-17T19:22:23.589Z,59.37
2018-12-17T19:24:54.051Z,61.50
2018-12-17T19:27:24.604Z,60.50
2018-12-17T19:29:55.134Z,58.60
2018-12-17T19:32:25.616Z,58.57
2018-12-17T19:34:56.234Z,59.53
2018-12-17T19:37:27.257Z,57.27
2018-12-17T19:39:57.602Z,57.10
2018-12-17T19:42:27.813Z,60.50
2018-12-17T19:44:58.351Z,59.47
2018-12-17T19:47:28.765Z,57.43
2018-12-17T19:49:59.261Z,56.97
2018-12-17T19:52:29.734Z,56.27
2018-12-17T19:55:00.125Z,57.80
2018-12-17T19:57:30.974Z,58.27
2018-12-17T20:00:01.442Z,56.53
2018-12-17T20:02:32.104Z,57.87
2018-12-17T20:05:02.857Z,58.50
2018-12-17T20:07:33.092Z,57.10
2018-12-17T20:10:04.645Z,57.83
2018-12-17T20:12:35.284Z,58.07
2018-12-17T20:15:06.440Z,58.87
2018-12-17T20:17:36.448Z,61.60
2018-12-17T20:20:07.548Z,56.60
2018-12-17T20:22:37.897Z,68.50
2018-12-17T20:25:08.272Z,70.53
2018-12-17T20:27:38.524Z,66.50
2018-12-17T20:30:10.992Z,65.03
2018-12-17T20:32:41.903Z,63.90
2018-12-17T20:35:12.896Z,64.40
2018-12-17T20:37:43.764Z,64.80
2018-12-17T20:40:15.087Z,69.23
2018-12-17T20:42:46.494Z,67.87
2018-12-17T20:45:17.005Z,64.37
2018-12-17T20:47:47.407Z,69.93
2018-12-17T20:50:18.294Z,66.27
2018-12-17T20:52:49.260Z,65.07
2018-12-17T20:55:19.716Z,67.77
2018-12-17T20:57:49.837Z,69.90
2018-12-17T21:00:20.091Z,64.30
2018-12-17T21:03:00.190Z,63.17
2018-12-17T21:05:28.402Z,61.63
2018-12-17T21:07:58.680Z,61.53
2018-12-17T21:10:29.394Z,60.93
2018-12-17T21:12:59.656Z,61.20
2018-12-17T21:15:29.843Z,60.43
2018-12-17T21:18:00.457Z,60.60
2018-12-17T21:20:30.846Z,59.47
2018-12-17T21:23:02.055Z,59.77
2018-12-17T21:25:33.289Z,60.33
2018-12-17T21:28:03.595Z,59.97
2018-12-17T21:30:33.955Z,60.70
2018-12-17T21:33:06.901Z,58.80
2018-12-17T21:35:38.572Z,57.90
2018-12-17T21:38:08.720Z,60.03
2018-12-17T21:40:39.137Z,59.60
2018-12-17T21:43:09.759Z,61.23
2018-12-17T21:45:40.611Z,59.13
2018-12-17T21:48:11.012Z,59.87
2018-12-17T21:50:42.545Z,61.67
2018-12-17T21:53:13.753Z,62.27
2018-12-17T21:55:44.236Z,61.00
2018-12-17T21:58:15.141Z,59.77
2018-12-17T22:00:45.525Z,60.17
2018-12-17T22:03:16.042Z,49.73
2018-12-17T22:05:46.373Z,55.13
2018-12-17T22:08:16.755Z,56.17
2018-12-17T22:10:47.135Z,54.97
2018-12-17T22:13:17.417Z,55.37
2018-12-17T22:15:47.886Z,54.63
2018-12-17T22:18:18.279Z,54.07
2018-12-17T22:20:48.922Z,55.13
2018-12-17T22:23:20.745Z,57.97
2018-12-17T22:25:51.406Z,57.30
2018-12-17T22:28:22.822Z,58.23
2018-12-17T22:30:53.864Z,61.00
2018-12-17T22:33:24.857Z,58.20
2018-12-17T22:35:56.097Z,57.93
2018-12-17T22:38:26.908Z,59.90
2018-12-17T22:40:57.745Z,58.27
2018-12-17T22:43:28.434Z,60.87
2018-12-17T22:45:59.716Z,63.33
2018-12-17T22:48:30.508Z,61.90
2018-12-17T22:51:01.112Z,64.77
2018-12-17T22:53:31.799Z,67.73
2018-12-17T22:56:02.361Z,66.23
2018-12-17T22:58:32.941Z,68.03
2018-12-17T23:01:04.590Z,69.10
2018-12-17T23:03:37.828Z,68.23
2018-12-17T23:06:08.036Z,71.10
2018-12-17T23:08:41.740Z,67.50
2018-12-17T23:11:23.399Z,68.23
2018-12-17T23:14:05.057Z,68.43
2018-12-17T23:16:46.355Z,69.33
2018-12-17T23:19:15.587Z,69.70
2018-12-17T23:21:47.865Z,70.93
2018-12-17T23:24:21.083Z,65.87
2018-12-17T23:26:53.538Z,63.10
2018-12-17T23:29:23.966Z,65.33
2018-12-17T23:31:54.630Z,59.90
2018-12-17T23:34:25.022Z,61.43
2018-12-17T23:36:55.538Z,62.70
2018-12-17T23:39:25.888Z,60.50
2018-12-17T23:41:56.404Z,60.90
2018-12-17T23:44:27.073Z,48.53
2018-12-17T23:46:57.176Z,41.90
2018-12-17T23:49:27.711Z,40.87
2018-12-17T23:51:58.136Z,41.57
2018-12-17T23:54:28.436Z,42.90
2018-12-17T23:56:58.743Z,50.97
2018-12-17T23:59:29.100Z,50.30
